Time;durP1;ratioP1;P1;durP2;ratioP2;P2;SDS_P1;SDS_P2;PMS_P1;PMS_P2;Temp;Humidity;BMP_temperature;BMP_pressure;BME280_temperature;BME280_humidity;BME280_pressure;Samples;Min_cycle;Max_cycle;Signal;HPM_P1;HPM_P2
2022/04/04 00:14:42;;;;;;;;;;;;;;;;;;;;;
2022/04/04 00:18:00;;;;;;;;;;;;;;;;;;;;;
2022/04/04 01:01:18;;;;;;;14.02;6.65;;;;;;;;;;5841019;24;20007;-95
2022/04/04 01:04:13;;;;;;;13.57;6.15;;;;;;;;;;5844420;24;20102;-93
2022/04/04 01:29:06;;;;;;;;;;;;;;;;;;;;;
2022/04/04 02:06:03;;;;;;;;;;;;;;;;;;;;;
2022/04/04 02:21:35;;;;;;;;;;;;;;;;;;;;;
2022/04/04 02:30:07;;;;;;;;;;;;;;;;;;5822265;24;20455;-91
2022/04/04 02:32:56;;;;;;;49.47;21.77;;;;;;;;;;5932801;23;19901;-92
2022/04/04 02:36:00;;;;;;;;;;;;;;;;;;;;;
2022/04/04 02:44:35;;;;;;;11.48;6.97;;;;;;;;;;5965117;23;20011;-90
2022/04/04 02:47:11;;;;;;;;;;;;;;;;;;;;;
2022/04/04 02:49:47;;;;;;;13.82;8.32;;;;;;;;;;6120611;23;20097;-90
2022/04/04 02:52:25;;;;;;;;;;;;;;;;;;;;;
2022/04/04 02:57:57;;;;;;;9.95;6.50;;;;;;;;;;6120704;23;20025;-86
2022/04/04 03:00:24;;;;;;;12.50;8.80;;;;;;;;;;6119662;23;20002;-87
2022/04/04 03:02:50;;;;;;;10.57;7.85;;;;;;;;;;6119300;23;20077;-90
2022/04/04 03:05:16;;;;;;;9.77;7.45;;;;;;;;;;6119838;23;20009;-89
2022/04/04 03:07:42;;;;;;;10.80;7.35;;;;;;;;;;6119353;23;20018;-89
2022/04/04 03:10:09;;;;;;;9.68;7.05;;;;;;;;;;6120626;23;20428;-90
2022/04/04 03:12:46;;;;;;;12.52;7.45;;;;;;;;;;6118752;23;20447;-90
2022/04/04 03:15:15;;;;;;;11.85;7.43;;;;;;;;;;6119543;23;19998;-87
2022/04/04 03:17:43;;;;;;;10.50;7.50;;;;;;;;;;6119161;23;20439;-90
2022/04/04 03:20:10;;;;;;;15.50;6.97;;;;;;;;;;6119482;23;20443;-85
2022/04/04 03:22:43;;;;;;;8.15;5.82;;;;;;;;;;6121115;23;20045;-89
2022/04/04 03:25:11;;;;;;;9.70;6.28;;;;;;;;;;6121205;23;20064;-87
2022/04/04 03:27:40;;;;;;;8.77;5.93;;;;;;;;;;6120826;23;20002;-86
2022/04/04 03:30:07;;;;;;;8.60;6.63;;;;;;;;;;6121030;23;20041;-90
2022/04/04 03:32:33;;;;;;;9.32;6.88;;;;;;;;;;6118568;23;20002;-88
2022/04/04 03:35:00;;;;;;;10.95;7.88;;;;;;;;;;6120433;23;20303;-89
2022/04/04 03:37:26;;;;;;;11.82;7.13;;;;;;;;;;6118509;23;20630;-88
2022/04/04 03:39:52;;;;;;;11.05;7.38;;;;;;;;;;6120113;23;20068;-88
2022/04/04 03:42:19;;;;;;;10.73;7.50;;;;;;;;;;6118168;23;20006;-88
2022/04/04 03:44:45;;;;;;;9.05;7.18;;;;;;;;;;6118457;23;20009;-87
2022/04/04 03:47:11;;;;;;;9.23;7.15;;;;;;;;;;6118411;23;20074;-87
2022/04/04 03:49:37;;;;;;;12.25;7.22;;;;;;;;;;6120896;23;20711;-90
2022/04/04 03:52:04;;;;;;;16.67;8.45;;;;;;;;;;6119949;23;20002;-87
2022/04/04 03:54:31;;;;;;;10.20;7.43;;;;;;;;;;6118151;23;20014;-88
2022/04/04 03:56:57;;;;;;;10.27;7.75;;;;;;;;;;6119754;23;20435;-89
2022/04/04 03:59:23;;;;;;;11.75;8.65;;;;;;;;;;6118303;23;20431;-88
2022/04/04 04:01:49;;;;;;;12.50;8.02;;;;;;;;;;6120073;23;20450;-86
2022/04/04 04:04:15;;;;;;;12.43;8.02;;;;;;;;;;6119919;23;19998;-89
2022/04/04 04:06:41;;;;;;;11.23;7.57;;;;;;;;;;6118332;23;20014;-89
2022/04/04 04:09:07;;;;;;;11.52;7.68;;;;;;;;;;6119465;23;20119;-88
2022/04/04 04:11:34;;;;;;;16.10;8.70;;;;;;;;;;6118059;23;20013;-88
2022/04/04 04:14:00;;;;;;;11.30;8.02;;;;;;;;;;6118398;23;20455;-89
2022/04/04 04:16:27;;;;;;;10.55;8.40;;;;;;;;;;6119553;23;20002;-88
2022/04/04 04:18:53;;;;;;;12.10;8.07;;;;;;;;;;6121481;23;20002;-88
2022/04/04 04:21:20;;;;;;;12.35;8.75;;;;;;;;;;6121849;23;20386;-87
2022/04/04 04:23:46;;;;;;;12.55;8.13;;;;;;;;;;6119737;23;20041;-88
2022/04/04 04:26:13;;;;;;;13.52;8.05;;;;;;;;;;6119651;23;20309;-87
2022/04/04 04:28:40;;;;;;;10.95;7.97;;;;;;;;;;6120594;23;20041;-86
2022/04/04 04:31:06;;;;;;;11.65;7.80;;;;;;;;;;6120715;23;20466;-88
2022/04/04 04:33:33;;;;;;;9.93;6.97;;;;;;;;;;6121273;23;20077;-88
2022/04/04 04:36:00;;;;;;;12.07;7.53;;;;;;;;;;6119772;23;20006;-87
2022/04/04 04:38:26;;;;;;;10.93;7.72;;;;;;;;;;6121103;23;20052;-88
2022/04/04 04:40:52;;;;;;;12.75;7.25;;;;;;;;;;6121093;23;20002;-88
2022/04/04 04:43:18;;;;;;;11.10;7.38;;;;;;;;;;6121308;23;20387;-87
2022/04/04 04:45:44;;;;;;;11.25;7.03;;;;;;;;;;6121315;23;19998;-88
2022/04/04 04:48:11;;;;;;;12.68;7.90;;;;;;;;;;6121200;23;20070;-87
2022/04/04 04:50:37;;;;;;;10.75;7.00;;;;;;;;;;6121982;23;20451;-87
2022/04/04 04:53:03;;;;;;;9.82;7.38;;;;;;;;;;6121075;23;20002;-87
2022/04/04 04:55:30;;;;;;;9.80;7.05;;;;;;;;;;6120765;23;20375;-88
2022/04/04 04:57:57;;;;;;;10.88;7.55;;;;;;;;;;6121212;23;20090;-88
2022/04/04 05:00:24;;;;;;;9.13;6.78;;;;;;;;;;6121158;23;20077;-87
2022/04/04 05:05:36;;;;;;;12.68;9.02;;;;;;;;;;6122331;23;20016;-88
2022/04/04 05:08:03;;;;;;;12.23;8.20;;;;;;;;;;6120647;23;20006;-88
2022/04/04 05:10:29;;;;;;;11.05;7.97;;;;;;;;;;6121161;23;20385;-88
2022/04/04 05:12:56;;;;;;;10.68;8.20;;;;;;;;;;6119507;23;20006;-89
2022/04/04 05:15:23;;;;;;;13.00;8.82;;;;;;;;;;6120973;23;20001;-87
2022/04/04 05:17:49;;;;;;;11.85;8.35;;;;;;;;;;6119485;23;20017;-88
2022/04/04 05:20:15;;;;;;;11.80;8.70;;;;;;;;;;6120882;23;19998;-87
2022/04/04 05:22:41;;;;;;;12.93;8.75;;;;;;;;;;6119245;23;20332;-87
2022/04/04 05:25:07;;;;;;;15.38;8.63;;;;;;;;;;6121962;23;20510;-88
2022/04/04 05:27:36;;;;;;;13.32;8.57;;;;;;;;;;6122028;23;20006;-88
2022/04/04 05:30:02;;;;;;;12.77;8.65;;;;;;;;;;6121558;23;20347;-87
2022/04/04 05:32:29;;;;;;;16.77;10.82;;;;;;;;;;6120299;23;20041;-88
2022/04/04 05:34:55;;;;;;;21.67;14.05;;;;;;;;;;6120045;23;20052;-87
2022/04/04 05:37:21;;;;;;;19.88;13.55;;;;;;;;;;6120449;23;20508;-88
2022/04/04 05:39:47;;;;;;;22.90;12.40;;;;;;;;;;6121660;23;20026;-88
2022/04/04 05:42:13;;;;;;;17.98;11.55;;;;;;;;;;6120243;23;20028;-88
2022/04/04 05:44:39;;;;;;;15.85;11.32;;;;;;;;;;6121032;23;20518;-86
2022/04/04 05:47:05;;;;;;;15.65;10.98;;;;;;;;;;6121162;23;20012;-87
2022/04/04 05:49:32;;;;;;;15.60;11.15;;;;;;;;;;6120218;23;20390;-87
2022/04/04 05:51:58;;;;;;;17.73;11.15;;;;;;;;;;6120538;23;20001;-86
2022/04/04 05:54:24;;;;;;;18.77;10.75;;;;;;;;;;6119314;23;20010;-87
2022/04/04 05:56:50;;;;;;;17.20;10.05;;;;;;;;;;6120399;23;20005;-87
2022/04/04 05:59:16;;;;;;;29.27;12.30;;;;;;;;;;6118779;23;20002;-86
2022/04/04 06:01:42;;;;;;;24.60;14.00;;;;;;;;;;6120355;23;20399;-87
2022/04/04 06:04:08;;;;;;;20.10;13.80;;;;;;;;;;6121228;23;20716;-87
2022/04/04 06:06:34;;;;;;;19.92;12.30;;;;;;;;;;6120418;23;20414;-87
2022/04/04 06:09:00;;;;;;;16.10;10.27;;;;;;;;;;6118653;23;20415;-86
2022/04/04 06:11:26;;;;;;;15.40;10.90;;;;;;;;;;6120419;23;20527;-86
2022/04/04 06:13:52;;;;;;;16.73;11.18;;;;;;;;;;6121731;23;20006;-87
2022/04/04 06:16:18;;;;;;;15.90;9.82;;;;;;;;;;6121077;23;20029;-87
2022/04/04 06:18:44;;;;;;;18.27;10.90;;;;;;;;;;6121168;23;20061;-88
2022/04/04 06:21:11;;;;;;;16.73;10.52;;;;;;;;;;6122429;23;20479;-87
2022/04/04 06:23:37;;;;;;;16.02;11.23;;;;;;;;;;6122378;23;20450;-87
2022/04/04 06:26:06;;;;;;;21.15;12.77;;;;;;;;;;6121516;23;20036;-88
2022/04/04 06:28:33;;;;;;;19.48;12.68;;;;;;;;;;6119710;23;20401;-87
2022/04/04 06:30:59;;;;;;;16.65;11.68;;;;;;;;;;6119831;23;20013;-86
2022/04/04 06:33:26;;;;;;;17.15;11.25;;;;;;;;;;6119620;23;20005;-87
2022/04/04 06:35:52;;;;;;;15.93;10.70;;;;;;;;;;6121570;23;20435;-88
2022/04/04 06:38:18;;;;;;;15.73;10.93;;;;;;;;;;6121346;23;20005;-88
2022/04/04 06:40:45;;;;;;;17.55;10.98;;;;;;;;;;6121357;23;20077;-87
2022/04/04 06:43:11;;;;;;;17.73;11.45;;;;;;;;;;6120738;23;20553;-89
2022/04/04 06:45:38;;;;;;;16.70;10.43;;;;;;;;;;6120796;23;20029;-87
2022/04/04 06:48:04;;;;;;;15.98;10.25;;;;;;;;;;6121116;23;20347;-89
2022/04/04 06:50:30;;;;;;;14.55;10.63;;;;;;;;;;6119809;23;20029;-88
2022/04/04 06:52:58;;;;;;;13.25;9.60;;;;;;;;;;6119761;23;20379;-88
2022/04/04 06:55:24;;;;;;;16.58;10.15;;;;;;;;;;6121354;23;20005;-88
2022/04/04 06:57:50;;;;;;;15.32;10.18;;;;;;;;;;6119755;23;20469;-88
2022/04/04 07:00:16;;;;;;;14.88;9.95;;;;;;;;;;6121151;23;20026;-88
2022/04/04 07:02:44;;;;;;;21.45;10.90;;;;;;;;;;6122500;23;19998;-88
2022/04/04 07:05:10;;;;;;;18.35;10.82;;;;;;;;;;6120845;23;20030;-89
2022/04/04 07:07:37;;;;;;;15.50;10.70;;;;;;;;;;6121215;23;20009;-88
2022/04/04 07:10:03;;;;;;;13.93;10.45;;;;;;;;;;6121302;23;20010;-88
2022/04/04 07:12:29;;;;;;;16.70;10.32;;;;;;;;;;6121154;23;20033;-88
2022/04/04 07:14:56;;;;;;;17.05;10.43;;;;;;;;;;6119564;23;20068;-89
2022/04/04 07:17:22;;;;;;;23.30;10.85;;;;;;;;;;6121482;23;20033;-88
2022/04/04 07:19:48;;;;;;;15.38;9.65;;;;;;;;;;6119817;23;20013;-89
2022/04/04 07:22:16;;;;;;;12.90;8.85;;;;;;;;;;6122048;23;20049;-88
2022/04/04 07:24:42;;;;;;;18.17;9.38;;;;;;;;;;6120562;23;20013;-89
2022/04/04 07:27:08;;;;;;;13.00;8.23;;;;;;;;;;6121118;23;20017;-88
2022/04/04 07:29:34;;;;;;;15.38;8.38;;;;;;;;;;6119296;23;20020;-89
2022/04/04 07:32:00;;;;;;;15.65;9.07;;;;;;;;;;6121632;23;19997;-88
2022/04/04 07:34:26;;;;;;;14.73;8.40;;;;;;;;;;6121362;23;20006;-89
2022/04/04 07:36:52;;;;;;;13.45;8.50;;;;;;;;;;6119652;23;20013;-89
2022/04/04 07:39:18;;;;;;;12.45;7.15;;;;;;;;;;6119660;23;20002;-89
2022/04/04 07:41:44;;;;;;;11.80;7.38;;;;;;;;;;6120572;23;20013;-89
2022/04/04 07:44:11;;;;;;;12.50;7.22;;;;;;;;;;6122067;23;20008;-88
2022/04/04 07:46:37;;;;;;;9.77;6.20;;;;;;;;;;6119849;23;20084;-90
2022/04/04 07:49:03;;;;;;;11.25;5.82;;;;;;;;;;6119568;23;20024;-88
2022/04/04 07:51:29;;;;;;;9.82;6.03;;;;;;;;;;6122507;23;20002;-89
2022/04/04 07:53:55;;;;;;;11.32;6.13;;;;;;;;;;6121383;23;20010;-88
2022/04/04 07:56:23;;;;;;;11.90;5.90;;;;;;;;;;6122780;23;20073;-89
2022/04/04 07:58:49;;;;;;;9.35;6.13;;;;;;;;;;6122775;23;20010;-89
2022/04/04 08:01:15;;;;;;;9.88;6.15;;;;;;;;;;6124124;23;20387;-89
2022/04/04 08:03:41;;;;;;;12.85;7.07;;;;;;;;;;6121808;23;20005;-89
2022/04/04 08:06:07;;;;;;;13.48;6.70;;;;;;;;;;6123351;23;20469;-89
2022/04/04 08:08:33;;;;;;;15.23;6.93;;;;;;;;;;6122760;23;20447;-88
2022/04/04 08:11:00;;;;;;;15.13;5.97;;;;;;;;;;6125625;23;20006;-90
2022/04/04 08:13:26;;;;;;;8.70;5.70;;;;;;;;;;6122728;23;20006;-89
2022/04/04 08:15:53;;;;;;;14.50;6.68;;;;;;;;;;6121414;23;20014;-89
2022/04/04 08:18:19;;;;;;;10.73;6.40;;;;;;;;;;6122977;23;20005;-88
2022/04/04 08:20:45;;;;;;;10.63;5.47;;;;;;;;;;6123923;23;20030;-89
2022/04/04 08:23:11;;;;;;;5.75;4.45;;;;;;;;;;6121031;23;20436;-89
2022/04/04 08:25:37;;;;;;;8.00;5.20;;;;;;;;;;6121195;23;20006;-89
2022/04/04 08:28:03;;;;;;;9.32;4.60;;;;;;;;;;6122645;23;20030;-89
2022/04/04 08:30:29;;;;;;;9.93;4.50;;;;;;;;;;6122930;23;20001;-88
2022/04/04 08:32:55;;;;;;;8.00;3.42;;;;;;;;;;6122814;23;20025;-88
2022/04/04 08:35:21;;;;;;;5.13;2.70;;;;;;;;;;6122725;23;20517;-88
2022/04/04 08:37:47;;;;;;;9.05;2.78;;;;;;;;;;6123571;23;20077;-88
2022/04/04 08:40:15;;;;;;;9.73;5.22;;;;;;;;;;6123495;23;20012;-88
2022/04/04 08:42:41;;;;;;;8.20;4.60;;;;;;;;;;6122714;23;20032;-88
2022/04/04 08:45:08;;;;;;;5.45;2.88;;;;;;;;;;6121133;23;20010;-88
2022/04/04 08:47:34;;;;;;;4.38;3.00;;;;;;;;;;6121273;23;20002;-89
2022/04/04 08:50:02;;;;;;;5.70;3.03;;;;;;;;;;6122461;23;20006;-89
2022/04/04 08:52:28;;;;;;;4.72;3.20;;;;;;;;;;6120882;23;20002;-88
2022/04/04 08:54:54;;;;;;;10.43;3.50;;;;;;;;;;6122423;23;20462;-88
2022/04/04 08:57:20;;;;;;;7.88;3.47;;;;;;;;;;6120895;23;20030;-87
2022/04/04 08:59:46;;;;;;;6.93;3.40;;;;;;;;;;6121832;23;20006;-88
2022/04/04 09:02:13;;;;;;;3.97;3.33;;;;;;;;;;6122140;23;20001;-88
2022/04/04 09:04:40;;;;;;;8.88;3.08;;;;;;;;;;6122314;23;20006;-88
2022/04/04 09:07:07;;;;;;;5.20;3.20;;;;;;;;;;6122338;23;19998;-88
2022/04/04 09:09:43;;;;;;;3.72;3.35;;;;;;;;;;6120527;23;20125;-89
2022/04/04 09:12:11;;;;;;;8.05;3.10;;;;;;;;;;6122261;23;20072;-89
2022/04/04 09:14:43;;;;;;;7.15;3.70;;;;;;;;;;6120697;23;20013;-88
2022/04/04 09:17:10;;;;;;;4.75;3.20;;;;;;;;;;6122310;23;19998;-88
2022/04/04 09:19:36;;;;;;;3.92;3.40;;;;;;;;;;6122214;23;20045;-88
2022/04/04 09:22:06;;;;;;;4.32;3.72;;;;;;;;;;6120548;23;20069;-89
2022/04/04 09:24:48;;;;;;;5.90;3.60;;;;;;;;;;6122226;23;20346;-88
2022/04/04 09:27:25;;;;;;;5.28;3.50;;;;;;;;;;6122285;23;20006;-88
2022/04/04 09:29:53;;;;;;;5.32;4.05;;;;;;;;;;6122685;23;20014;-88
2022/04/04 09:32:20;;;;;;;6.47;3.88;;;;;;;;;;6121646;23;20006;-87
2022/04/04 09:35:02;;;;;;;5.32;4.18;;;;;;;;;;6123458;23;20435;-90
2022/04/04 09:37:32;;;;;;;8.48;4.32;;;;;;;;;;6120448;23;20002;-88
2022/04/04 09:40:06;;;;;;;8.57;4.32;;;;;;;;;;6122092;23;20514;-88
2022/04/04 09:42:32;;;;;;;5.55;4.30;;;;;;;;;;6120331;23;20062;-88
2022/04/04 09:45:03;;;;;;;6.57;4.35;;;;;;;;;;6120167;23;20085;-88
2022/04/04 09:47:48;;;;;;;7.35;4.43;;;;;;;;;;6121972;23;20045;-87
2022/04/04 09:50:33;;;;;;;6.88;4.40;;;;;;;;;;6121956;23;20010;-88
2022/04/04 09:53:00;;;;;;;7.80;5.05;;;;;;;;;;6121865;23;20443;-89
2022/04/04 09:55:34;;;;;;;6.65;4.70;;;;;;;;;;6120269;23;20049;-89
2022/04/04 09:58:01;;;;;;;9.48;4.85;;;;;;;;;;6121886;23;20009;-89
2022/04/04 10:00:28;;;;;;;6.43;4.53;;;;;;;;;;6121893;23;20076;-88
2022/04/04 10:02:59;;;;;;;8.02;4.70;;;;;;;;;;6121774;23;20002;-88
2022/04/04 10:05:26;;;;;;;5.05;4.40;;;;;;;;;;6121728;23;20057;-88
2022/04/04 10:07:55;;;;;;;7.28;4.65;;;;;;;;;;6122469;23;20002;-88
2022/04/04 10:10:21;;;;;;;7.78;4.45;;;;;;;;;;6122899;23;20032;-89
2022/04/04 10:12:50;;;;;;;7.38;5.05;;;;;;;;;;6120198;23;20428;-88
2022/04/04 10:15:16;;;;;;;7.15;4.53;;;;;;;;;;6121811;23;20526;-88
2022/04/04 10:17:42;;;;;;;11.40;5.05;;;;;;;;;;6120444;23;20006;-89
2022/04/04 10:20:09;;;;;;;6.32;4.60;;;;;;;;;;6121621;23;20009;-88
2022/04/04 10:22:35;;;;;;;6.68;4.80;;;;;;;;;;6121437;23;20004;-89
2022/04/04 10:25:03;;;;;;;4.93;4.45;;;;;;;;;;6121481;23;20013;-88
2022/04/04 10:27:29;;;;;;;5.43;4.65;;;;;;;;;;6121955;23;20348;-88
2022/04/04 10:30:05;;;;;;;6.20;4.63;;;;;;;;;;6121450;23;20038;-88
2022/04/04 10:32:32;;;;;;;6.88;4.30;;;;;;;;;;6121440;23;20462;-88
2022/04/04 10:34:58;;;;;;;5.93;4.25;;;;;;;;;;6121285;23;20001;-90
2022/04/04 10:37:29;;;;;;;6.80;4.35;;;;;;;;;;6122319;23;20347;-89
2022/04/04 10:39:56;;;;;;;5.95;4.07;;;;;;;;;;6121503;23;19998;-88
2022/04/04 10:42:25;;;;;;;6.93;3.95;;;;;;;;;;6122567;23;20012;-89
2022/04/04 10:44:59;;;;;;;5.03;3.78;;;;;;;;;;6122355;23;20049;-88
2022/04/04 10:47:26;;;;;;;4.78;4.00;;;;;;;;;;6122456;23;20002;-89
2022/04/04 10:49:52;;;;;;;5.35;4.07;;;;;;;;;;6122448;23;20017;-88
2022/04/04 10:52:21;;;;;;;8.48;4.28;;;;;;;;;;6120006;23;20002;-88
2022/04/04 10:54:48;;;;;;;4.63;4.10;;;;;;;;;;6121464;23;20030;-89
2022/04/04 10:57:17;;;;;;;8.10;4.80;;;;;;;;;;6121321;23;20077;-88
2022/04/04 10:59:48;;;;;;;4.75;3.72;;;;;;;;;;6119861;23;20182;-89
2022/04/04 11:02:16;;;;;;;6.00;4.28;;;;;;;;;;6121296;23;20006;-89
2022/04/04 11:07:38;;;;;;;;;;;;;;;;;;6120572;23;20013;-88
2022/04/04 11:07:38;;;;;;;4.63;3.67;;;;;;;;;;6121286;23;19901;-88
2022/04/04 11:10:26;;;;;;;4.65;3.88;;;;;;;;;;6121694;23;20014;-88
2022/04/04 11:12:55;;;;;;;4.93;3.33;;;;;;;;;;6119198;23;20063;-88
2022/04/04 11:15:43;;;;;;;5.25;3.60;;;;;;;;;;6120616;23;20013;-89
2022/04/04 11:18:13;;;;;;;4.53;3.50;;;;;;;;;;6121471;23;20456;-89
2022/04/04 11:20:53;;;;;;;5.57;3.10;;;;;;;;;;6119746;23;20006;-89
2022/04/04 11:23:21;;;;;;;6.47;3.55;;;;;;;;;;6119965;23;20057;-90
2022/04/04 11:25:49;;;;;;;4.15;3.33;;;;;;;;;;6123199;23;20321;-88
2022/04/04 11:28:15;;;;;;;6.43;3.53;;;;;;;;;;6122123;23;20395;-89
2022/04/04 11:30:42;;;;;;;5.95;3.45;;;;;;;;;;6121693;23;20073;-87
2022/04/04 11:33:12;;;;;;;6.00;3.72;;;;;;;;;;6122131;23;20024;-89
2022/04/04 11:35:38;;;;;;;6.80;3.78;;;;;;;;;;6121613;23;20060;-89
2022/04/04 11:38:11;;;;;;;3.60;3.28;;;;;;;;;;6122199;23;20134;-88
2022/04/04 11:40:39;;;;;;;4.90;3.60;;;;;;;;;;6123531;23;20157;-88
2022/04/04 11:43:09;;;;;;;5.57;3.60;;;;;;;;;;6123054;23;20004;-88
2022/04/04 11:45:39;;;;;;;6.65;3.70;;;;;;;;;;6121619;23;20037;-90
2022/04/04 11:48:13;;;;;;;8.07;3.85;;;;;;;;;;6123350;23;20008;-88
2022/04/04 11:50:40;;;;;;;177.10;60.17;;;;;;;;;;6121549;23;20010;-87
2022/04/04 11:53:08;;;;;;;155.82;53.53;;;;;;;;;;6123142;23;20004;-88
2022/04/04 11:55:39;;;;;;;4.40;3.42;;;;;;;;;;6123082;23;20080;-89
2022/04/04 11:58:20;;;;;;;488.08;172.48;;;;;;;;;;6122078;23;20092;-89
2022/04/04 12:00:55;;;;;;;974.25;344.50;;;;;;;;;;6123402;23;20343;-88
2022/04/04 12:03:21;;;;;;;987.72;350.13;;;;;;;;;;6123348;23;19998;-88
2022/04/04 12:05:49;;;;;;;243.73;142.82;;;;;;;;;;6123293;23;20006;-87
2022/04/04 12:08:15;;;;;;;;;;;;;;;;;;6121053;23;20400;-88
2022/04/04 12:10:42;;;;;;;1409.38;447.85;;;;;;;;;;6120886;23;20372;-90
2022/04/04 12:13:13;;;;;;;4.85;3.45;;;;;;;;;;6122183;23;19987;-88
2022/04/04 12:15:42;;;;;;;5.55;3.70;;;;;;;;;;6123268;23;20061;-89
2022/04/04 12:18:08;;;;;;;5.18;3.90;;;;;;;;;;6123530;23;20010;-88
2022/04/04 12:20:44;;;;;;;7.00;4.78;;;;;;;;;;6121330;23;20069;-88
2022/04/04 12:26:07;;;;;;;6.60;4.03;;;;;;;;;;6123236;23;20044;-88
2022/04/04 12:28:34;;;;;;;6.03;3.55;;;;;;;;;;6122935;23;20088;-89
2022/04/04 12:31:18;;;;;;;4.38;3.33;;;;;;;;;;6124522;23;20004;-89
2022/04/04 12:33:44;;;;;;;5.75;3.30;;;;;;;;;;6123406;23;20085;-89
2022/04/04 12:36:10;;;;;;;5.13;3.22;;;;;;;;;;6123360;23;19998;-90
2022/04/04 12:38:41;;;;;;;5.68;3.42;;;;;;;;;;6124148;23;20006;-89
2022/04/04 12:41:09;;;;;;;7.28;3.47;;;;;;;;;;6124590;23;20025;-88
2022/04/04 12:43:36;;;;;;;6.07;4.03;;;;;;;;;;6132439;23;20013;-88
2022/04/04 12:46:03;;;;;;;6.55;4.18;;;;;;;;;;6150569;23;20009;-89
2022/04/04 12:48:33;;;;;;;5.57;3.80;;;;;;;;;;6150244;23;19998;-89
2022/04/04 12:50:59;;;;;;;5.45;4.05;;;;;;;;;;6137634;23;20002;-89
2022/04/04 12:53:26;;;;;;;5.82;4.18;;;;;;;;;;6122816;23;20017;-88
2022/04/04 12:56:08;;;;;;;4.53;3.58;;;;;;;;;;6121488;23;20249;-88
2022/04/04 12:58:35;;;;;;;5.80;3.63;;;;;;;;;;6122650;23;20447;-89
2022/04/04 13:01:17;;;;;;;7.43;3.70;;;;;;;;;;6122182;23;20013;-89
2022/04/04 13:03:48;;;;;;;6.43;3.88;;;;;;;;;;6122641;23;20057;-89
2022/04/04 13:06:16;;;;;;;3.72;3.42;;;;;;;;;;6122852;23;20002;-88
2022/04/04 13:08:51;;;;;;;4.35;3.38;;;;;;;;;;6120996;23;20010;-88
2022/04/04 13:11:17;;;;;;;6.28;3.50;;;;;;;;;;6120728;23;20024;-88
2022/04/04 13:14:07;;;;;;;3.45;3.00;;;;;;;;;;6121404;23;20006;-89
2022/04/04 13:16:37;;;;;;;7.57;3.67;;;;;;;;;;6123640;23;20077;-88
2022/04/04 13:19:05;;;;;;;6.25;3.47;;;;;;;;;;6123569;23;20038;-89
2022/04/04 13:21:32;;;;;;;5.85;3.72;;;;;;;;;;6123268;23;20447;-88
2022/04/04 13:23:58;;;;;;;6.60;3.97;;;;;;;;;;6120767;23;20021;-88
2022/04/04 13:26:24;;;;;;;9.15;4.50;;;;;;;;;;6122472;23;20396;-90
2022/04/04 13:28:50;;;;;;;5.40;3.55;;;;;;;;;;6122228;23;20037;-88
2022/04/04 13:31:16;;;;;;;5.45;3.60;;;;;;;;;;6120621;23;20029;-90
2022/04/04 13:33:42;;;;;;;9.35;3.63;;;;;;;;;;6120840;23;20009;-89
2022/04/04 13:36:09;;;;;;;7.15;3.60;;;;;;;;;;6122181;23;20443;-88
2022/04/04 13:38:35;;;;;;;5.32;3.45;;;;;;;;;;6122786;23;20466;-89
2022/04/04 13:41:01;;;;;;;5.07;3.97;;;;;;;;;;6123487;23;20030;-90
2022/04/04 13:43:28;;;;;;;6.68;3.70;;;;;;;;;;6120701;23;20006;-88
2022/04/04 13:45:54;;;;;;;4.93;3.60;;;;;;;;;;6122554;23;20506;-88
2022/04/04 13:48:20;;;;;;;5.65;3.45;;;;;;;;;;6119925;23;20032;-89
2022/04/04 13:50:46;;;;;;;7.70;3.60;;;;;;;;;;6121944;23;20368;-88
2022/04/04 13:53:12;;;;;;;4.60;3.78;;;;;;;;;;6120555;23;20443;-89
2022/04/04 13:55:38;;;;;;;7.15;3.72;;;;;;;;;;6121009;23;20010;-88
2022/04/04 13:58:05;;;;;;;5.93;3.40;;;;;;;;;;6123044;23;20446;-88
2022/04/04 14:00:31;;;;;;;9.05;4.00;;;;;;;;;;6122913;23;20442;-89
2022/04/04 14:02:57;;;;;;;4.65;3.60;;;;;;;;;;6121786;23;20443;-88
2022/04/04 14:05:23;;;;;;;8.30;4.00;;;;;;;;;;6120432;23;20009;-88
2022/04/04 14:07:50;;;;;;;5.78;3.58;;;;;;;;;;6121887;23;20005;-87
2022/04/04 14:10:17;;;;;;;9.10;4.80;;;;;;;;;;6122164;23;20017;-88
2022/04/04 14:12:43;;;;;;;8.55;3.72;;;;;;;;;;6120452;23;20038;-88
2022/04/04 14:15:12;;;;;;;6.72;4.10;;;;;;;;;;6121900;23;20447;-88
2022/04/04 14:17:38;;;;;;;6.68;4.75;;;;;;;;;;6122009;23;20037;-88
2022/04/04 14:20:06;;;;;;;10.25;4.30;;;;;;;;;;6121069;23;20006;-88
2022/04/04 14:22:32;;;;;;;7.00;4.93;;;;;;;;;;6123161;23;20036;-88
2022/04/04 14:24:58;;;;;;;11.38;5.22;;;;;;;;;;6122073;23;20010;-89
2022/04/04 14:27:25;;;;;;;6.35;5.03;;;;;;;;;;6124400;23;20006;-87
2022/04/04 14:29:51;;;;;;;8.70;5.88;;;;;;;;;;6121793;23;20010;-89
2022/04/04 14:32:17;;;;;;;6.43;4.10;;;;;;;;;;6121818;23;20002;-88
2022/04/04 14:34:44;;;;;;;8.52;5.38;;;;;;;;;;6121751;23;20069;-89
2022/04/04 14:37:10;;;;;;;9.85;5.05;;;;;;;;;;6122106;23;20503;-89
2022/04/04 14:39:38;;;;;;;7.28;5.25;;;;;;;;;;6121320;23;20010;-89
2022/04/04 14:42:05;;;;;;;5.82;4.28;;;;;;;;;;6121160;23;20006;-88
2022/04/04 14:44:31;;;;;;;6.50;4.32;;;;;;;;;;6120304;23;20013;-90
2022/04/04 14:46:57;;;;;;;6.80;4.50;;;;;;;;;;6121579;23;19998;-88
2022/04/04 14:49:23;;;;;;;74.25;28.77;;;;;;;;;;6120113;23;20092;-87
2022/04/04 14:51:49;;;;;;;6.07;4.60;;;;;;;;;;6121418;23;19998;-89
2022/04/04 14:54:15;;;;;;;7.80;4.28;;;;;;;;;;6121420;23;20072;-88
2022/04/04 14:56:41;;;;;;;6.32;4.05;;;;;;;;;;6121355;23;20002;-89
2022/04/04 14:59:07;;;;;;;5.10;3.78;;;;;;;;;;6120611;23;20006;-88
2022/04/04 15:01:33;;;;;;;8.98;3.97;;;;;;;;;;6120012;23;20453;-89
2022/04/04 15:03:59;;;;;;;6.65;3.58;;;;;;;;;;6120148;23;20351;-88
2022/04/04 15:06:26;;;;;;;8.25;3.60;;;;;;;;;;6120243;23;20445;-89
2022/04/04 15:08:52;;;;;;;1033.75;445.10;;;;;;;;;;6120310;23;20016;-88
2022/04/04 15:11:18;;;;;;;425.45;215.35;;;;;;;;;;6121346;23;20002;-88
2022/04/04 15:13:48;;;;;;;1434.97;525.92;;;;;;;;;;6120340;23;20360;-89
2022/04/04 15:16:14;;;;;;;1520.67;555.77;;;;;;;;;;6130760;23;20329;-88
2022/04/04 15:18:40;;;;;;;1473.10;519.80;;;;;;;;;;6144023;23;20341;-89
2022/04/04 15:21:06;;;;;;;1393.80;553.35;;;;;;;;;;6145802;23;20004;-87
2022/04/04 15:23:33;;;;;;;1500.00;512.00;;;;;;;;;;6130211;23;20385;-88
2022/04/04 15:25:59;;;;;;;6.05;3.58;;;;;;;;;;6123174;23;20009;-89
2022/04/04 15:28:25;;;;;;;6.57;3.25;;;;;;;;;;6121370;23;20009;-88
2022/04/04 15:30:54;;;;;;;970.90;518.10;;;;;;;;;;6121493;23;20124;-89
2022/04/04 15:33:21;;;;;;;1435.30;463.20;;;;;;;;;;6119620;23;20348;-87
2022/04/04 15:35:47;;;;;;;4.88;3.05;;;;;;;;;;6121399;23;20005;-89
2022/04/04 15:38:13;;;;;;;4.78;3.20;;;;;;;;;;6121360;23;20407;-89
2022/04/04 15:40:40;;;;;;;7.07;3.20;;;;;;;;;;6120739;23;20089;-90
2022/04/04 15:43:06;;;;;;;4.70;3.30;;;;;;;;;;6121798;23;20005;-88
2022/04/04 15:45:33;;;;;;;5.57;3.00;;;;;;;;;;6120775;23;20040;-89
2022/04/04 15:48:00;;;;;;;4.20;3.50;;;;;;;;;;6119878;23;20069;-89
2022/04/04 15:50:26;;;;;;;6.95;3.47;;;;;;;;;;6120104;23;20502;-87
2022/04/04 15:52:52;;;;;;;5.13;2.95;;;;;;;;;;6119851;23;20053;-89
2022/04/04 15:55:21;;;;;;;6.72;3.30;;;;;;;;;;6119640;23;20017;-89
2022/04/04 15:57:47;;;;;;;6.68;3.35;;;;;;;;;;6120919;23;20457;-87
2022/04/04 16:00:14;;;;;;;7.07;2.90;;;;;;;;;;6121234;23;20067;-87
2022/04/04 16:02:40;;;;;;;5.50;4.03;;;;;;;;;;6122093;23;19998;-87
2022/04/04 16:05:07;;;;;;;7.68;4.07;;;;;;;;;;6121156;23;20006;-87
2022/04/04 16:07:33;;;;;;;6.25;3.30;;;;;;;;;;6121068;23;20482;-88
2022/04/04 16:10:06;;;;;;;7.68;4.10;;;;;;;;;;6119537;23;20061;-88
2022/04/04 16:12:33;;;;;;;9.18;3.40;;;;;;;;;;6121999;23;20227;-87
2022/04/04 16:14:59;;;;;;;5.75;3.35;;;;;;;;;;6120044;23;20009;-87
2022/04/04 16:17:28;;;;;;;7.68;4.50;;;;;;;;;;6120004;23;20089;-87
2022/04/04 16:19:54;;;;;;;6.35;3.60;;;;;;;;;;6119857;23;20006;-88
2022/04/04 16:22:20;;;;;;;6.43;3.67;;;;;;;;;;6119923;23;20010;-88
2022/04/04 16:24:46;;;;;;;5.25;3.67;;;;;;;;;;6121517;23;20006;-87
2022/04/04 16:27:15;;;;;;;5.45;3.97;;;;;;;;;;6122078;23;20028;-89
2022/04/04 16:29:41;;;;;;;;;;;;;;;;;;6123327;23;20014;-89
2022/04/04 16:32:07;;;;;;;6.28;4.20;;;;;;;;;;6121440;23;19948;-88
2022/04/04 16:34:33;;;;;;;6.72;3.65;;;;;;;;;;6123106;23;20310;-84
2022/04/04 16:36:59;;;;;;;5.72;3.80;;;;;;;;;;6121280;23;20084;-86
2022/04/04 16:39:25;;;;;;;7.28;4.00;;;;;;;;;;6120101;23;20002;-85
2022/04/04 16:41:52;;;;;;;9.10;5.18;;;;;;;;;;6121344;23;20331;-85
2022/04/04 16:44:19;;;;;;;7.80;4.70;;;;;;;;;;6121097;23;20005;-86
2022/04/04 16:46:45;;;;;;;6.45;4.13;;;;;;;;;;6119672;23;20044;-86
2022/04/04 16:49:11;;;;;;;7.03;3.78;;;;;;;;;;6118612;23;20399;-89
2022/04/04 16:51:37;;;;;;;17.23;7.80;;;;;;;;;;6121250;23;20002;-87
2022/04/04 16:54:04;;;;;;;7.32;4.15;;;;;;;;;;6122425;23;20640;-86
2022/04/04 16:56:30;;;;;;;6.50;4.50;;;;;;;;;;6122432;23;20009;-86
2022/04/04 16:58:56;;;;;;;5.72;4.60;;;;;;;;;;6122601;23;20009;-88
2022/04/04 17:01:22;;;;;;;5.10;4.20;;;;;;;;;;6122633;23;19998;-89
2022/04/04 17:03:48;;;;;;;5.45;4.20;;;;;;;;;;6119820;23;20006;-87
2022/04/04 17:06:14;;;;;;;5.95;4.18;;;;;;;;;;6120317;23;20065;-89
2022/04/04 17:08:40;;;;;;;7.32;4.20;;;;;;;;;;6120935;23;20029;-88
2022/04/04 17:11:08;;;;;;;4.75;4.03;;;;;;;;;;6121534;23;20006;-88
2022/04/04 17:13:34;;;;;;;9.68;4.97;;;;;;;;;;6121805;23;20603;-89